sensor_id;sensor_type;location;lat;lon;timestamp;P1;durP1;ratioP1;P2;durP2;ratioP2
43504;SDS011;29098;48.184;16.298;2024-02-21T00:01:47;6.60;;;3.00;;
43504;SDS011;29098;48.184;16.298;2024-02-21T00:04:12;7.18;;;3.20;;
43504;SDS011;29098;48.184;16.298;2024-02-21T00:06:38;7.63;;;3.10;;
43504;SDS011;29098;48.184;16.298;2024-02-21T00:09:03;11.88;;;2.47;;
43504;SDS011;29098;48.184;16.298;2024-02-21T00:11:29;11.85;;;3.30;;
43504;SDS011;29098;48.184;16.298;2024-02-21T00:13:54;14.45;;;4.18;;
43504;SDS011;29098;48.184;16.298;2024-02-21T00:16:20;8.30;;;2.80;;
43504;SDS011;29098;48.184;16.298;2024-02-21T00:18:46;10.88;;;3.13;;
43504;SDS011;29098;48.184;16.298;2024-02-21T00:21:11;7.88;;;3.28;;
43504;SDS011;29098;48.184;16.298;2024-02-21T00:23:42;8.20;;;3.20;;
43504;SDS011;29098;48.184;16.298;2024-02-21T00:26:08;5.72;;;2.72;;
43504;SDS011;29098;48.184;16.298;2024-02-21T00:28:33;13.10;;;3.13;;
43504;SDS011;29098;48.184;16.298;2024-02-21T00:30:59;9.48;;;2.78;;
43504;SDS011;29098;48.184;16.298;2024-02-21T00:33:24;11.05;;;4.00;;
43504;SDS011;29098;48.184;16.298;2024-02-21T00:35:50;7.15;;;2.83;;
43504;SDS011;29098;48.184;16.298;2024-02-21T00:38:15;9.43;;;3.47;;
43504;SDS011;29098;48.184;16.298;2024-02-21T00:40:41;10.80;;;3.40;;
43504;SDS011;29098;48.184;16.298;2024-02-21T00:43:07;11.27;;;4.28;;
43504;SDS011;29098;48.184;16.298;2024-02-21T00:45:32;7.80;;;2.75;;
43504;SDS011;29098;48.184;16.298;2024-02-21T00:47:58;9.75;;;3.50;;
43504;SDS011;29098;48.184;16.298;2024-02-21T00:50:23;11.57;;;2.97;;
43504;SDS011;29098;48.184;16.298;2024-02-21T00:52:49;9.25;;;3.70;;
43504;SDS011;29098;48.184;16.298;2024-02-21T00:55:14;10.68;;;2.72;;
43504;SDS011;29098;48.184;16.298;2024-02-21T00:57:40;10.35;;;3.22;;
43504;SDS011;29098;48.184;16.298;2024-02-21T01:00:05;8.38;;;3.03;;
43504;SDS011;29098;48.184;16.298;2024-02-21T01:02:33;10.95;;;3.15;;
43504;SDS011;29098;48.184;16.298;2024-02-21T01:04:58;10.50;;;3.33;;
43504;SDS011;29098;48.184;16.298;2024-02-21T01:07:24;5.75;;;2.40;;
43504;SDS011;29098;48.184;16.298;2024-02-21T01:09:49;15.73;;;3.35;;
43504;SDS011;29098;48.184;16.298;2024-02-21T01:12:16;10.65;;;4.78;;
43504;SDS011;29098;48.184;16.298;2024-02-21T01:14:41;5.70;;;2.63;;
43504;SDS011;29098;48.184;16.298;2024-02-21T01:17:07;7.85;;;3.00;;
43504;SDS011;29098;48.184;16.298;2024-02-21T01:19:33;13.15;;;2.95;;
43504;SDS011;29098;48.184;16.298;2024-02-21T01:21:58;8.82;;;2.67;;
43504;SDS011;29098;48.184;16.298;2024-02-21T01:24:23;9.50;;;2.95;;
43504;SDS011;29098;48.184;16.298;2024-02-21T01:26:49;9.07;;;2.70;;
43504;SDS011;29098;48.184;16.298;2024-02-21T01:29:14;6.13;;;2.85;;
43504;SDS011;29098;48.184;16.298;2024-02-21T01:31:40;7.40;;;2.45;;
43504;SDS011;29098;48.184;16.298;2024-02-21T01:34:05;6.15;;;2.70;;
43504;SDS011;29098;48.184;16.298;2024-02-21T01:36:31;9.10;;;2.63;;
43504;SDS011;29098;48.184;16.298;2024-02-21T01:38:56;9.45;;;3.70;;
43504;SDS011;29098;48.184;16.298;2024-02-21T01:41:21;7.25;;;2.65;;
43504;SDS011;29098;48.184;16.298;2024-02-21T01:43:47;10.73;;;3.15;;
43504;SDS011;29098;48.184;16.298;2024-02-21T01:46:12;12.60;;;3.70;;
43504;SDS011;29098;48.184;16.298;2024-02-21T01:48:38;9.73;;;3.22;;
43504;SDS011;29098;48.184;16.298;2024-02-21T01:51:04;11.93;;;3.30;;
43504;SDS011;29098;48.184;16.298;2024-02-21T01:53:34;6.97;;;2.80;;
43504;SDS011;29098;48.184;16.298;2024-02-21T01:56:02;11.88;;;3.15;;
43504;SDS011;29098;48.184;16.298;2024-02-21T01:58:30;10.77;;;3.42;;
43504;SDS011;29098;48.184;16.298;2024-02-21T02:00:56;6.53;;;2.97;;
43504;SDS011;29098;48.184;16.298;2024-02-21T02:03:22;8.32;;;2.95;;
43504;SDS011;29098;48.184;16.298;2024-02-21T02:05:49;8.88;;;3.38;;
43504;SDS011;29098;48.184;16.298;2024-02-21T02:08:16;6.53;;;2.55;;
43504;SDS011;29098;48.184;16.298;2024-02-21T02:10:43;7.93;;;3.67;;
43504;SDS011;29098;48.184;16.298;2024-02-21T02:13:09;13.00;;;3.72;;
43504;SDS011;29098;48.184;16.298;2024-02-21T02:15:45;16.65;;;3.42;;
43504;SDS011;29098;48.184;16.298;2024-02-21T02:18:12;10.88;;;3.35;;
43504;SDS011;29098;48.184;16.298;2024-02-21T02:20:39;7.97;;;2.63;;
43504;SDS011;29098;48.184;16.298;2024-02-21T02:25:48;6.68;;;2.35;;
43504;SDS011;29098;48.184;16.298;2024-02-21T02:28:17;9.13;;;3.45;;
43504;SDS011;29098;48.184;16.298;2024-02-21T02:30:43;9.77;;;2.80;;
43504;SDS011;29098;48.184;16.298;2024-02-21T02:33:08;7.13;;;2.92;;
43504;SDS011;29098;48.184;16.298;2024-02-21T02:35:34;7.55;;;3.15;;
43504;SDS011;29098;48.184;16.298;2024-02-21T02:38:01;6.68;;;2.50;;
43504;SDS011;29098;48.184;16.298;2024-02-21T02:40:27;10.85;;;2.63;;
43504;SDS011;29098;48.184;16.298;2024-02-21T02:42:53;8.93;;;3.33;;
43504;SDS011;29098;48.184;16.298;2024-02-21T02:45:20;7.40;;;2.78;;
43504;SDS011;29098;48.184;16.298;2024-02-21T02:47:48;7.40;;;2.63;;
43504;SDS011;29098;48.184;16.298;2024-02-21T02:50:13;6.80;;;2.30;;
43504;SDS011;29098;48.184;16.298;2024-02-21T02:52:39;12.98;;;3.30;;
43504;SDS011;29098;48.184;16.298;2024-02-21T02:55:05;9.13;;;2.25;;
43504;SDS011;29098;48.184;16.298;2024-02-21T02:57:31;7.60;;;2.25;;
43504;SDS011;29098;48.184;16.298;2024-02-21T02:59:56;11.32;;;2.72;;
43504;SDS011;29098;48.184;16.298;2024-02-21T03:02:22;6.53;;;2.75;;
43504;SDS011;29098;48.184;16.298;2024-02-21T03:04:48;5.82;;;2.60;;
43504;SDS011;29098;48.184;16.298;2024-02-21T03:07:14;11.40;;;2.65;;
43504;SDS011;29098;48.184;16.298;2024-02-21T03:09:40;9.82;;;2.67;;
43504;SDS011;29098;48.184;16.298;2024-02-21T03:12:07;6.40;;;2.90;;
43504;SDS011;29098;48.184;16.298;2024-02-21T03:14:33;10.80;;;2.97;;
43504;SDS011;29098;48.184;16.298;2024-02-21T03:16:58;8.70;;;3.13;;
43504;SDS011;29098;48.184;16.298;2024-02-21T03:19:24;12.40;;;2.85;;
43504;SDS011;29098;48.184;16.298;2024-02-21T03:21:50;8.38;;;2.42;;
43504;SDS011;29098;48.184;16.298;2024-02-21T03:24:16;7.75;;;2.60;;
43504;SDS011;29098;48.184;16.298;2024-02-21T03:26:42;8.07;;;2.70;;
43504;SDS011;29098;48.184;16.298;2024-02-21T03:29:07;5.55;;;3.10;;
43504;SDS011;29098;48.184;16.298;2024-02-21T03:31:34;10.68;;;2.83;;
43504;SDS011;29098;48.184;16.298;2024-02-21T03:34:00;5.68;;;2.58;;
43504;SDS011;29098;48.184;16.298;2024-02-21T03:36:26;8.35;;;2.83;;
43504;SDS011;29098;48.184;16.298;2024-02-21T03:38:51;5.85;;;2.40;;
43504;SDS011;29098;48.184;16.298;2024-02-21T03:41:17;8.85;;;2.58;;
43504;SDS011;29098;48.184;16.298;2024-02-21T03:43:42;5.18;;;2.15;;
43504;SDS011;29098;48.184;16.298;2024-02-21T03:46:08;10.48;;;3.17;;
43504;SDS011;29098;48.184;16.298;2024-02-21T03:48:33;9.98;;;2.50;;
43504;SDS011;29098;48.184;16.298;2024-02-21T03:50:58;9.63;;;3.08;;
43504;SDS011;29098;48.184;16.298;2024-02-21T03:53:24;11.02;;;3.13;;
43504;SDS011;29098;48.184;16.298;2024-02-21T03:55:49;7.75;;;2.80;;
43504;SDS011;29098;48.184;16.298;2024-02-21T03:58:15;10.40;;;3.63;;
43504;SDS011;29098;48.184;16.298;2024-02-21T04:00:40;7.90;;;2.35;;
43504;SDS011;29098;48.184;16.298;2024-02-21T04:03:06;9.20;;;2.75;;
43504;SDS011;29098;48.184;16.298;2024-02-21T04:05:31;8.25;;;3.00;;
43504;SDS011;29098;48.184;16.298;2024-02-21T04:07:58;7.63;;;2.83;;
43504;SDS011;29098;48.184;16.298;2024-02-21T04:10:23;8.00;;;2.80;;
43504;SDS011;29098;48.184;16.298;2024-02-21T04:12:49;11.45;;;2.33;;
43504;SDS011;29098;48.184;16.298;2024-02-21T04:15:15;9.93;;;3.42;;
43504;SDS011;29098;48.184;16.298;2024-02-21T04:17:41;9.75;;;2.78;;
43504;SDS011;29098;48.184;16.298;2024-02-21T04:20:13;6.57;;;3.10;;
43504;SDS011;29098;48.184;16.298;2024-02-21T04:22:40;8.85;;;2.97;;
43504;SDS011;29098;48.184;16.298;2024-02-21T04:25:06;6.68;;;2.13;;
43504;SDS011;29098;48.184;16.298;2024-02-21T04:27:31;17.42;;;3.40;;
43504;SDS011;29098;48.184;16.298;2024-02-21T04:29:57;10.18;;;2.92;;
43504;SDS011;29098;48.184;16.298;2024-02-21T04:32:22;9.38;;;2.88;;
43504;SDS011;29098;48.184;16.298;2024-02-21T04:34:48;7.45;;;2.90;;
43504;SDS011;29098;48.184;16.298;2024-02-21T04:37:13;7.80;;;2.80;;
43504;SDS011;29098;48.184;16.298;2024-02-21T04:39:39;7.22;;;2.85;;
43504;SDS011;29098;48.184;16.298;2024-02-21T04:42:04;7.45;;;2.53;;
43504;SDS011;29098;48.184;16.298;2024-02-21T04:44:30;7.85;;;2.65;;
43504;SDS011;29098;48.184;16.298;2024-02-21T04:46:55;5.68;;;2.17;;
43504;SDS011;29098;48.184;16.298;2024-02-21T04:49:21;7.22;;;2.95;;
43504;SDS011;29098;48.184;16.298;2024-02-21T04:51:46;8.52;;;2.83;;
43504;SDS011;29098;48.184;16.298;2024-02-21T04:54:11;9.27;;;3.60;;
43504;SDS011;29098;48.184;16.298;2024-02-21T04:56:37;7.72;;;2.78;;
43504;SDS011;29098;48.184;16.298;2024-02-21T04:59:02;7.15;;;2.40;;
43504;SDS011;29098;48.184;16.298;2024-02-21T05:01:28;6.57;;;2.30;;
43504;SDS011;29098;48.184;16.298;2024-02-21T05:03:53;7.95;;;2.40;;
43504;SDS011;29098;48.184;16.298;2024-02-21T05:06:19;4.72;;;2.10;;
43504;SDS011;29098;48.184;16.298;2024-02-21T05:08:44;7.05;;;2.35;;
43504;SDS011;29098;48.184;16.298;2024-02-21T05:11:09;7.45;;;2.50;;
43504;SDS011;29098;48.184;16.298;2024-02-21T05:13:35;5.85;;;2.35;;
43504;SDS011;29098;48.184;16.298;2024-02-21T05:16:00;9.45;;;3.53;;
43504;SDS011;29098;48.184;16.298;2024-02-21T05:18:27;5.18;;;2.05;;
43504;SDS011;29098;48.184;16.298;2024-02-21T05:20:53;6.97;;;2.40;;
43504;SDS011;29098;48.184;16.298;2024-02-21T05:23:18;7.82;;;2.30;;
43504;SDS011;29098;48.184;16.298;2024-02-21T05:25:44;8.70;;;2.33;;
43504;SDS011;29098;48.184;16.298;2024-02-21T05:28:09;7.68;;;2.88;;
43504;SDS011;29098;48.184;16.298;2024-02-21T05:30:35;8.93;;;2.40;;
43504;SDS011;29098;48.184;16.298;2024-02-21T05:33:06;5.10;;;2.35;;
43504;SDS011;29098;48.184;16.298;2024-02-21T05:35:32;6.07;;;2.22;;
43504;SDS011;29098;48.184;16.298;2024-02-21T05:37:58;8.23;;;2.45;;
43504;SDS011;29098;48.184;16.298;2024-02-21T05:40:24;6.05;;;2.45;;
43504;SDS011;29098;48.184;16.298;2024-02-21T05:42:50;6.88;;;2.20;;
43504;SDS011;29098;48.184;16.298;2024-02-21T05:45:17;6.10;;;2.17;;
43504;SDS011;29098;48.184;16.298;2024-02-21T05:47:43;4.60;;;1.98;;
43504;SDS011;29098;48.184;16.298;2024-02-21T05:50:09;5.97;;;2.97;;
43504;SDS011;29098;48.184;16.298;2024-02-21T05:52:35;7.15;;;2.33;;
43504;SDS011;29098;48.184;16.298;2024-02-21T05:55:00;3.88;;;1.60;;
43504;SDS011;29098;48.184;16.298;2024-02-21T05:57:26;6.95;;;2.30;;
43504;SDS011;29098;48.184;16.298;2024-02-21T06:00:06;10.18;;;2.72;;
43504;SDS011;29098;48.184;16.298;2024-02-21T06:02:31;7.55;;;2.45;;
43504;SDS011;29098;48.184;16.298;2024-02-21T06:04:57;6.65;;;1.85;;
43504;SDS011;29098;48.184;16.298;2024-02-21T06:07:22;8.45;;;2.70;;
43504;SDS011;29098;48.184;16.298;2024-02-21T06:09:48;6.43;;;2.20;;
43504;SDS011;29098;48.184;16.298;2024-02-21T06:12:13;10.05;;;2.85;;
43504;SDS011;29098;48.184;16.298;2024-02-21T06:14:39;7.97;;;2.25;;
43504;SDS011;29098;48.184;16.298;2024-02-21T06:17:04;6.68;;;2.35;;
43504;SDS011;29098;48.184;16.298;2024-02-21T06:19:29;4.88;;;1.92;;
43504;SDS011;29098;48.184;16.298;2024-02-21T06:21:55;6.82;;;2.20;;
43504;SDS011;29098;48.184;16.298;2024-02-21T06:24:20;8.95;;;2.47;;
43504;SDS011;29098;48.184;16.298;2024-02-21T06:26:46;8.75;;;2.53;;
43504;SDS011;29098;48.184;16.298;2024-02-21T06:29:12;7.10;;;2.33;;
43504;SDS011;29098;48.184;16.298;2024-02-21T06:31:40;7.15;;;2.30;;
43504;SDS011;29098;48.184;16.298;2024-02-21T06:34:05;4.85;;;2.17;;
43504;SDS011;29098;48.184;16.298;2024-02-21T06:36:31;5.97;;;2.60;;
43504;SDS011;29098;48.184;16.298;2024-02-21T06:38:57;5.85;;;2.75;;
43504;SDS011;29098;48.184;16.298;2024-02-21T06:41:22;7.80;;;2.55;;
43504;SDS011;29098;48.184;16.298;2024-02-21T06:43:48;8.77;;;2.30;;
43504;SDS011;29098;48.184;16.298;2024-02-21T06:46:26;6.20;;;2.10;;
43504;SDS011;29098;48.184;16.298;2024-02-21T06:48:53;5.30;;;2.53;;
43504;SDS011;29098;48.184;16.298;2024-02-21T06:51:19;6.68;;;2.22;;
43504;SDS011;29098;48.184;16.298;2024-02-21T06:53:44;7.53;;;2.35;;
43504;SDS011;29098;48.184;16.298;2024-02-21T06:56:10;6.45;;;2.63;;
43504;SDS011;29098;48.184;16.298;2024-02-21T06:58:36;5.68;;;2.38;;
43504;SDS011;29098;48.184;16.298;2024-02-21T07:01:01;8.05;;;3.10;;
43504;SDS011;29098;48.184;16.298;2024-02-21T07:03:27;7.32;;;2.47;;
43504;SDS011;29098;48.184;16.298;2024-02-21T07:05:52;8.05;;;2.25;;
43504;SDS011;29098;48.184;16.298;2024-02-21T07:08:18;5.07;;;2.08;;
43504;SDS011;29098;48.184;16.298;2024-02-21T07:10:43;8.68;;;2.30;;
43504;SDS011;29098;48.184;16.298;2024-02-21T07:13:09;6.15;;;2.28;;
43504;SDS011;29098;48.184;16.298;2024-02-21T07:15:34;8.00;;;2.13;;
43504;SDS011;29098;48.184;16.298;2024-02-21T07:18:01;7.78;;;2.20;;
43504;SDS011;29098;48.184;16.298;2024-02-21T07:20:26;5.28;;;2.40;;
43504;SDS011;29098;48.184;16.298;2024-02-21T07:22:52;6.40;;;2.00;;
43504;SDS011;29098;48.184;16.298;2024-02-21T07:25:18;5.30;;;1.95;;
43504;SDS011;29098;48.184;16.298;2024-02-21T07:27:44;5.70;;;2.22;;
43504;SDS011;29098;48.184;16.298;2024-02-21T07:30:09;6.97;;;2.72;;
43504;SDS011;29098;48.184;16.298;2024-02-21T07:32:35;9.70;;;2.20;;
43504;SDS011;29098;48.184;16.298;2024-02-21T07:35:01;8.88;;;2.63;;
43504;SDS011;29098;48.184;16.298;2024-02-21T07:37:26;6.45;;;2.45;;
43504;SDS011;29098;48.184;16.298;2024-02-21T07:39:52;6.85;;;2.25;;
43504;SDS011;29098;48.184;16.298;2024-02-21T07:42:17;6.65;;;2.30;;
43504;SDS011;29098;48.184;16.298;2024-02-21T07:44:43;8.02;;;2.72;;
43504;SDS011;29098;48.184;16.298;2024-02-21T07:47:08;5.28;;;2.10;;
43504;SDS011;29098;48.184;16.298;2024-02-21T07:49:40;4.13;;;2.03;;
43504;SDS011;29098;48.184;16.298;2024-02-21T07:52:06;6.00;;;2.47;;
43504;SDS011;29098;48.184;16.298;2024-02-21T07:54:32;7.35;;;2.47;;
43504;SDS011;29098;48.184;16.298;2024-02-21T07:56:58;6.13;;;2.40;;
43504;SDS011;29098;48.184;16.298;2024-02-21T07:59:23;5.97;;;2.13;;
43504;SDS011;29098;48.184;16.298;2024-02-21T08:01:49;9.27;;;1.95;;
43504;SDS011;29098;48.184;16.298;2024-02-21T08:04:14;8.80;;;2.28;;
43504;SDS011;29098;48.184;16.298;2024-02-21T08:06:40;5.65;;;2.10;;
43504;SDS011;29098;48.184;16.298;2024-02-21T08:09:05;7.25;;;1.98;;
43504;SDS011;29098;48.184;16.298;2024-02-21T08:11:31;6.80;;;3.80;;
43504;SDS011;29098;48.184;16.298;2024-02-21T08:13:56;5.22;;;2.05;;
43504;SDS011;29098;48.184;16.298;2024-02-21T08:16:23;5.65;;;1.95;;
43504;SDS011;29098;48.184;16.298;2024-02-21T08:18:48;4.57;;;1.42;;
43504;SDS011;29098;48.184;16.298;2024-02-21T08:21:13;3.95;;;1.67;;
43504;SDS011;29098;48.184;16.298;2024-02-21T08:23:39;7.38;;;2.20;;
43504;SDS011;29098;48.184;16.298;2024-02-21T08:26:05;4.30;;;1.58;;
43504;SDS011;29098;48.184;16.298;2024-02-21T08:28:30;6.30;;;1.90;;
43504;SDS011;29098;48.184;16.298;2024-02-21T08:30:56;6.40;;;2.33;;
43504;SDS011;29098;48.184;16.298;2024-02-21T08:33:21;4.13;;;1.30;;
43504;SDS011;29098;48.184;16.298;2024-02-21T08:35:50;5.28;;;1.70;;
43504;SDS011;29098;48.184;16.298;2024-02-21T08:38:16;6.15;;;1.70;;
43504;SDS011;29098;48.184;16.298;2024-02-21T08:40:42;9.60;;;1.95;;
43504;SDS011;29098;48.184;16.298;2024-02-21T08:43:07;7.25;;;1.73;;
43504;SDS011;29098;48.184;16.298;2024-02-21T08:45:33;4.95;;;1.55;;
43504;SDS011;29098;48.184;16.298;2024-02-21T08:47:58;4.95;;;1.50;;
43504;SDS011;29098;48.184;16.298;2024-02-21T08:50:23;4.68;;;1.75;;
43504;SDS011;29098;48.184;16.298;2024-02-21T08:52:49;6.30;;;1.95;;
43504;SDS011;29098;48.184;16.298;2024-02-21T08:55:15;3.53;;;1.30;;
43504;SDS011;29098;48.184;16.298;2024-02-21T08:57:40;4.30;;;1.50;;
43504;SDS011;29098;48.184;16.298;2024-02-21T09:00:06;6.38;;;1.90;;
43504;SDS011;29098;48.184;16.298;2024-02-21T09:02:35;11.20;;;2.05;;
43504;SDS011;29098;48.184;16.298;2024-02-21T09:05:05;3.50;;;1.55;;
43504;SDS011;29098;48.184;16.298;2024-02-21T09:07:31;4.75;;;1.80;;
43504;SDS011;29098;48.184;16.298;2024-02-21T09:09:57;4.10;;;2.15;;
43504;SDS011;29098;48.184;16.298;2024-02-21T09:12:22;8.18;;;2.17;;
43504;SDS011;29098;48.184;16.298;2024-02-21T09:14:48;5.13;;;2.15;;
43504;SDS011;29098;48.184;16.298;2024-02-21T09:17:15;5.43;;;1.58;;
43504;SDS011;29098;48.184;16.298;2024-02-21T09:19:42;7.13;;;1.98;;
43504;SDS011;29098;48.184;16.298;2024-02-21T09:22:08;6.43;;;2.45;;
43504;SDS011;29098;48.184;16.298;2024-02-21T09:24:34;4.47;;;1.73;;
43504;SDS011;29098;48.184;16.298;2024-02-21T09:26:59;5.93;;;2.60;;
43504;SDS011;29098;48.184;16.298;2024-02-21T09:29:25;4.80;;;1.95;;
43504;SDS011;29098;48.184;16.298;2024-02-21T09:31:50;6.35;;;2.47;;
43504;SDS011;29098;48.184;16.298;2024-02-21T09:34:17;6.30;;;2.08;;
43504;SDS011;29098;48.184;16.298;2024-02-21T09:36:42;9.95;;;2.00;;
43504;SDS011;29098;48.184;16.298;2024-02-21T09:39:09;6.35;;;1.60;;
43504;SDS011;29098;48.184;16.298;2024-02-21T09:41:36;8.25;;;1.77;;
43504;SDS011;29098;48.184;16.298;2024-02-21T09:44:09;6.15;;;2.22;;
43504;SDS011;29098;48.184;16.298;2024-02-21T09:49:32;3.97;;;1.42;;
43504;SDS011;29098;48.184;16.298;2024-02-21T09:52:02;6.28;;;1.70;;
43504;SDS011;29098;48.184;16.298;2024-02-21T09:54:29;7.88;;;1.90;;
43504;SDS011;29098;48.184;16.298;2024-02-21T09:56:57;7.68;;;2.10;;
43504;SDS011;29098;48.184;16.298;2024-02-21T09:59:24;7.40;;;1.80;;
43504;SDS011;29098;48.184;16.298;2024-02-21T10:01:50;4.60;;;1.88;;
43504;SDS011;29098;48.184;16.298;2024-02-21T10:04:16;5.82;;;1.98;;
43504;SDS011;29098;48.184;16.298;2024-02-21T10:06:43;4.88;;;1.80;;
43504;SDS011;29098;48.184;16.298;2024-02-21T10:09:19;6.10;;;1.90;;
43504;SDS011;29098;48.184;16.298;2024-02-21T10:11:55;4.90;;;1.70;;
43504;SDS011;29098;48.184;16.298;2024-02-21T10:14:21;5.90;;;1.60;;
43504;SDS011;29098;48.184;16.298;2024-02-21T10:16:47;5.30;;;2.33;;
43504;SDS011;29098;48.184;16.298;2024-02-21T10:19:17;6.28;;;2.55;;
43504;SDS011;29098;48.184;16.298;2024-02-21T10:21:43;5.63;;;2.28;;
43504;SDS011;29098;48.184;16.298;2024-02-21T10:24:10;6.97;;;2.15;;
43504;SDS011;29098;48.184;16.298;2024-02-21T10:26:37;5.57;;;1.40;;
43504;SDS011;29098;48.184;16.298;2024-02-21T10:29:03;5.03;;;1.63;;
43504;SDS011;29098;48.184;16.298;2024-02-21T10:31:29;9.30;;;2.08;;
43504;SDS011;29098;48.184;16.298;2024-02-21T10:33:55;4.68;;;1.70;;
43504;SDS011;29098;48.184;16.298;2024-02-21T10:36:22;5.28;;;1.80;;
43504;SDS011;29098;48.184;16.298;2024-02-21T10:38:49;7.38;;;2.20;;
43504;SDS011;29098;48.184;16.298;2024-02-21T10:41:14;5.85;;;1.73;;
43504;SDS011;29098;48.184;16.298;2024-02-21T10:43:43;4.32;;;1.67;;
43504;SDS011;29098;48.184;16.298;2024-02-21T10:46:15;7.65;;;2.13;;
43504;SDS011;29098;48.184;16.298;2024-02-21T10:48:44;6.40;;;1.98;;
43504;SDS011;29098;48.184;16.298;2024-02-21T10:56:38;6.32;;;2.35;;
43504;SDS011;29098;48.184;16.298;2024-02-21T10:59:06;5.45;;;1.63;;
43504;SDS011;29098;48.184;16.298;2024-02-21T11:01:32;7.50;;;1.85;;
43504;SDS011;29098;48.184;16.298;2024-02-21T11:03:59;8.02;;;2.05;;
43504;SDS011;29098;48.184;16.298;2024-02-21T11:06:28;6.28;;;1.83;;
43504;SDS011;29098;48.184;16.298;2024-02-21T11:11:32;5.95;;;1.65;;
43504;SDS011;29098;48.184;16.298;2024-02-21T11:14:05;7.43;;;2.60;;
43504;SDS011;29098;48.184;16.298;2024-02-21T11:16:37;7.07;;;2.10;;
43504;SDS011;29098;48.184;16.298;2024-02-21T11:19:08;4.93;;;1.60;;
43504;SDS011;29098;48.184;16.298;2024-02-21T11:21:37;5.75;;;1.88;;
43504;SDS011;29098;48.184;16.298;2024-02-21T11:24:03;8.88;;;2.45;;
43504;SDS011;29098;48.184;16.298;2024-02-21T11:26:29;8.05;;;3.63;;
43504;SDS011;29098;48.184;16.298;2024-02-21T11:28:59;6.18;;;2.10;;
43504;SDS011;29098;48.184;16.298;2024-02-21T11:31:44;6.75;;;1.83;;
43504;SDS011;29098;48.184;16.298;2024-02-21T11:34:16;6.32;;;1.95;;
43504;SDS011;29098;48.184;16.298;2024-02-21T11:36:47;6.43;;;1.67;;
43504;SDS011;29098;48.184;16.298;2024-02-21T11:39:20;9.20;;;1.80;;
43504;SDS011;29098;48.184;16.298;2024-02-21T11:44:45;5.50;;;1.63;;
43504;SDS011;29098;48.184;16.298;2024-02-21T11:47:11;5.53;;;1.70;;
43504;SDS011;29098;48.184;16.298;2024-02-21T11:49:37;6.63;;;1.58;;
43504;SDS011;29098;48.184;16.298;2024-02-21T11:52:06;4.85;;;1.98;;
43504;SDS011;29098;48.184;16.298;2024-02-21T11:54:32;7.10;;;1.83;;
43504;SDS011;29098;48.184;16.298;2024-02-21T11:56:59;5.32;;;1.83;;
43504;SDS011;29098;48.184;16.298;2024-02-21T11:59:26;9.38;;;1.70;;
43504;SDS011;29098;48.184;16.298;2024-02-21T12:01:52;7.13;;;1.92;;
43504;SDS011;29098;48.184;16.298;2024-02-21T12:04:18;6.03;;;2.05;;
43504;SDS011;29098;48.184;16.298;2024-02-21T12:06:45;7.03;;;1.83;;
43504;SDS011;29098;48.184;16.298;2024-02-21T12:09:14;6.20;;;1.70;;
43504;SDS011;29098;48.184;16.298;2024-02-21T12:11:43;6.32;;;1.50;;
43504;SDS011;29098;48.184;16.298;2024-02-21T12:14:09;4.88;;;1.58;;
43504;SDS011;29098;48.184;16.298;2024-02-21T12:16:35;4.20;;;1.70;;
43504;SDS011;29098;48.184;16.298;2024-02-21T12:19:02;9.43;;;2.13;;
43504;SDS011;29098;48.184;16.298;2024-02-21T12:21:32;10.35;;;1.90;;
43504;SDS011;29098;48.184;16.298;2024-02-21T12:24:11;4.70;;;1.88;;
43504;SDS011;29098;48.184;16.298;2024-02-21T12:26:52;6.35;;;1.80;;
43504;SDS011;29098;48.184;16.298;2024-02-21T12:29:18;4.47;;;1.33;;
43504;SDS011;29098;48.184;16.298;2024-02-21T12:31:44;5.43;;;1.58;;
43504;SDS011;29098;48.184;16.298;2024-02-21T12:34:10;5.05;;;1.98;;
43504;SDS011;29098;48.184;16.298;2024-02-21T12:36:36;5.00;;;1.77;;
43504;SDS011;29098;48.184;16.298;2024-02-21T12:39:08;10.13;;;2.22;;
43504;SDS011;29098;48.184;16.298;2024-02-21T12:41:33;5.40;;;2.13;;
43504;SDS011;29098;48.184;16.298;2024-02-21T12:44:01;6.32;;;2.00;;
43504;SDS011;29098;48.184;16.298;2024-02-21T12:46:28;7.82;;;1.63;;
43504;SDS011;29098;48.184;16.298;2024-02-21T12:48:54;3.22;;;1.60;;
43504;SDS011;29098;48.184;16.298;2024-02-21T12:51:19;5.97;;;1.40;;
43504;SDS011;29098;48.184;16.298;2024-02-21T12:53:47;3.20;;;1.48;;
43504;SDS011;29098;48.184;16.298;2024-02-21T12:56:14;6.82;;;1.70;;
43504;SDS011;29098;48.184;16.298;2024-02-21T12:58:40;7.50;;;1.90;;
43504;SDS011;29098;48.184;16.298;2024-02-21T13:01:06;5.75;;;2.25;;
43504;SDS011;29098;48.184;16.298;2024-02-21T13:03:31;6.28;;;2.05;;
43504;SDS011;29098;48.184;16.298;2024-02-21T13:05:57;4.10;;;1.30;;
43504;SDS011;29098;48.184;16.298;2024-02-21T13:08:24;6.97;;;1.65;;
43504;SDS011;29098;48.184;16.298;2024-02-21T13:10:50;4.85;;;1.67;;
43504;SDS011;29098;48.184;16.298;2024-02-21T13:13:15;7.93;;;2.20;;
43504;SDS011;29098;48.184;16.298;2024-02-21T13:15:41;3.95;;;1.63;;
43504;SDS011;29098;48.184;16.298;2024-02-21T13:18:08;6.65;;;1.75;;
43504;SDS011;29098;48.184;16.298;2024-02-21T13:20:34;12.48;;;2.25;;
43504;SDS011;29098;48.184;16.298;2024-02-21T13:22:59;7.40;;;1.75;;
43504;SDS011;29098;48.184;16.298;2024-02-21T13:25:24;5.40;;;1.67;;
43504;SDS011;29098;48.184;16.298;2024-02-21T13:27:50;6.68;;;1.85;;
43504;SDS011;29098;48.184;16.298;2024-02-21T13:30:16;4.57;;;1.52;;
43504;SDS011;29098;48.184;16.298;2024-02-21T13:32:42;3.47;;;1.30;;
43504;SDS011;29098;48.184;16.298;2024-02-21T13:35:08;4.80;;;1.40;;
43504;SDS011;29098;48.184;16.298;2024-02-21T13:37:36;3.53;;;1.30;;
43504;SDS011;29098;48.184;16.298;2024-02-21T13:40:02;4.70;;;1.50;;
43504;SDS011;29098;48.184;16.298;2024-02-21T13:42:29;4.95;;;1.30;;
43504;SDS011;29098;48.184;16.298;2024-02-21T13:44:55;5.43;;;1.98;;
43504;SDS011;29098;48.184;16.298;2024-02-21T13:47:20;3.13;;;1.55;;
43504;SDS011;29098;48.184;16.298;2024-02-21T13:49:46;3.55;;;1.40;;
43504;SDS011;29098;48.184;16.298;2024-02-21T13:52:12;8.50;;;2.00;;
43504;SDS011;29098;48.184;16.298;2024-02-21T13:54:38;3.05;;;1.13;;
43504;SDS011;29098;48.184;16.298;2024-02-21T13:57:03;5.88;;;1.70;;
43504;SDS011;29098;48.184;16.298;2024-02-21T13:59:29;3.72;;;1.63;;
43504;SDS011;29098;48.184;16.298;2024-02-21T14:01:55;5.75;;;1.40;;
43504;SDS011;29098;48.184;16.298;2024-02-21T14:04:21;6.43;;;1.50;;
43504;SDS011;29098;48.184;16.298;2024-02-21T14:06:46;3.80;;;1.38;;
43504;SDS011;29098;48.184;16.298;2024-02-21T14:09:12;3.65;;;1.60;;
43504;SDS011;29098;48.184;16.298;2024-02-21T14:11:38;4.55;;;1.45;;
43504;SDS011;29098;48.184;16.298;2024-02-21T14:14:05;3.15;;;1.38;;
43504;SDS011;29098;48.184;16.298;2024-02-21T14:16:31;6.95;;;1.20;;
43504;SDS011;29098;48.184;16.298;2024-02-21T14:18:57;3.33;;;1.42;;
43504;SDS011;29098;48.184;16.298;2024-02-21T14:21:23;7.00;;;2.13;;
43504;SDS011;29098;48.184;16.298;2024-02-21T14:23:48;6.47;;;1.77;;
43504;SDS011;29098;48.184;16.298;2024-02-21T14:26:14;8.27;;;1.55;;
43504;SDS011;29098;48.184;16.298;2024-02-21T14:28:39;6.53;;;1.73;;
43504;SDS011;29098;48.184;16.298;2024-02-21T14:31:06;5.35;;;1.38;;
43504;SDS011;29098;48.184;16.298;2024-02-21T14:33:34;5.15;;;1.23;;
43504;SDS011;29098;48.184;16.298;2024-02-21T14:36:00;6.43;;;1.60;;
43504;SDS011;29098;48.184;16.298;2024-02-21T14:38:26;4.53;;;1.38;;
43504;SDS011;29098;48.184;16.298;2024-02-21T14:40:52;3.33;;;1.20;;
43504;SDS011;29098;48.184;16.298;2024-02-21T14:43:18;4.95;;;1.45;;
43504;SDS011;29098;48.184;16.298;2024-02-21T14:45:46;10.43;;;2.05;;